NLP weather

Nelspruit Airport
Nelspruit, Mpumalanga, South Africa

Public forecast

Using degrees Celsius for public forecast. Weather courtesy of forecast.io.

Closest aviation weather report (METAR) to Nelspruit Airport

Closest report is Kruger Mpumalanga International Airport, 12.5 nm (23.2 km) NE. Retrieved 2019/10/16 09:00 UTC (23 minutes ago):

FAKN 160900Z AUTO 07003KT //// // ////// 21/14 Q1027

Closest aviation forecast (TAF) to Nelspruit Airport

Forecast is more than 12 hours old.

Closest forecast is Kruger Mpumalanga International Airport, 12.5 nm (23.2 km) NE. Retrieved 2017/06/05 04:55 UTC (2 years ago):

TAF FAKN 050300Z 0504/0515 25006KT CAVOK BECMG 0511/0513 13005KT SCT030 BECMG 0513/0515 07005KT TX22/0513ZTN08/0504Z